Ault, Minnesota
Current Conditions -  °F | °C
As of 4:41 AM on Friday 19 Dec 2014 (Local Time) from KTWM Reporting Station
Overcast Overcast  
Wind Chill: 18°   Ceiling: 600
Heat Index: 25°   Visibility: 10mi
Dew Point: 19°   Wind: 6mph
Humidity: 80%   Direction: 250°WSW
Pressure: 30.21"   Gusts: NA
Location:  47.3998°N, 91.9141°W
Report Text: KTWM 191041Z AUTO 25005KT 10SM OVC006 M04/M07 A3021 RMK AO2
Loading
Personal Weather Stations






























Interactive Weather Map New forecast layout! Learn more

10-Day Weather Forecast

Advertisements
Track Severe Weather on mobile